Time;durP1;ratioP1;P1;durP2;ratioP2;P2;SDS_P1;SDS_P2;PMS_P1;PMS_P2;Temp;Humidity;BMP_temperature;BMP_pressure;BME280_temperature;BME280_humidity;BME280_pressure;Samples;Min_cycle;Max_cycle;Signal;HPM_P1;HPM_P2
2023/06/24 00:02:09;;;;;;;16.38;12.50;;;;;;;;;;5080282;28;20256;-69
2023/06/24 00:04:34;;;;;;;14.15;12.27;;;;;;;;;;5083384;28;20234;-69
2023/06/24 00:07:01;;;;;;;14.18;11.80;;;;;;;;;;5077132;28;20189;-69
2023/06/24 00:09:27;;;;;;;16.13;13.40;;;;;;;;;;5083499;28;20199;-71
2023/06/24 00:11:54;;;;;;;15.75;13.27;;;;;;;;;;5077234;28;20247;-69
2023/06/24 00:14:21;;;;;;;14.30;12.60;;;;;;;;;;5081784;28;20192;-69
2023/06/24 00:16:48;;;;;;;15.40;12.75;;;;;;;;;;5086303;28;20208;-69
2023/06/24 00:19:14;;;;;;;15.13;12.02;;;;;;;;;;5085313;28;20552;-69
2023/06/24 00:21:40;;;;;;;16.33;12.80;;;;;;;;;;5084591;28;20184;-69
2023/06/24 00:24:05;;;;;;;15.48;12.70;;;;;;;;;;5089829;28;20686;-69
2023/06/24 00:26:31;;;;;;;16.13;13.48;;;;;;;;;;5072668;28;20275;-70
2023/06/24 00:28:58;;;;;;;17.30;12.82;;;;;;;;;;5076720;28;20649;-69
2023/06/24 00:31:23;;;;;;;15.60;13.57;;;;;;;;;;5070184;28;20625;-69
2023/06/24 00:33:49;;;;;;;15.13;12.60;;;;;;;;;;5089552;28;20261;-69
2023/06/24 00:36:15;;;;;;;15.20;13.50;;;;;;;;;;5071372;28;20192;-69
2023/06/24 00:38:40;;;;;;;14.10;12.50;;;;;;;;;;5079578;28;20196;-69
2023/06/24 00:41:07;;;;;;;18.33;14.15;;;;;;;;;;5072716;28;20333;-70
2023/06/24 00:43:33;;;;;;;16.73;13.80;;;;;;;;;;5082449;28;20191;-69
2023/06/24 00:45:59;;;;;;;17.60;13.65;;;;;;;;;;5081863;28;20226;-69
2023/06/24 00:48:24;;;;;;;17.55;13.52;;;;;;;;;;5081383;28;20274;-70
2023/06/24 00:50:50;;;;;;;17.35;14.35;;;;;;;;;;5087073;28;20230;-69
2023/06/24 00:53:16;;;;;;;16.17;13.18;;;;;;;;;;5080247;28;20203;-69
2023/06/24 00:55:41;;;;;;;17.35;13.93;;;;;;;;;;5088165;28;20192;-69
2023/06/24 00:58:07;;;;;;;16.00;13.95;;;;;;;;;;5089147;28;20263;-69
2023/06/24 01:00:34;;;;;;;19.98;14.43;;;;;;;;;;5089962;28;20283;-69
2023/06/24 01:03:00;;;;;;;18.73;14.82;;;;;;;;;;5084075;28;20184;-69
2023/06/24 01:05:26;;;;;;;17.50;14.45;;;;;;;;;;5073271;28;20184;-69
2023/06/24 01:07:55;;;;;;;18.38;14.18;;;;;;;;;;5079084;28;20196;-69
2023/06/24 01:10:23;;;;;;;21.73;15.30;;;;;;;;;;5074142;28;20213;-70
2023/06/24 01:12:49;;;;;;;19.15;14.93;;;;;;;;;;5085972;28;20646;-69
2023/06/24 01:15:15;;;;;;;16.13;13.35;;;;;;;;;;5084148;28;20584;-70
2023/06/24 01:18:02;;;;;;;17.00;14.18;;;;;;;;;;5084121;28;20196;-69
2023/06/24 01:20:36;;;;;;;17.65;14.13;;;;;;;;;;5082557;28;20631;-69
2023/06/24 01:23:17;;;;;;;16.08;13.15;;;;;;;;;;5089443;28;20188;-69
2023/06/24 01:25:42;;;;;;;18.02;14.48;;;;;;;;;;5075705;28;20258;-69
2023/06/24 01:28:29;;;;;;;16.95;13.45;;;;;;;;;;5072795;28;20192;-69
2023/06/24 01:31:23;;;;;;;18.27;14.23;;;;;;;;;;5075976;28;20208;-69
2023/06/24 01:34:22;;;;;;;16.80;13.93;;;;;;;;;;5082216;28;20673;-69
2023/06/24 01:37:00;;;;;;;18.45;14.27;;;;;;;;;;5080925;28;20240;-69
2023/06/24 01:39:28;;;;;;;19.73;15.25;;;;;;;;;;5071370;28;20311;-70
2023/06/24 01:42:06;;;;;;;19.58;14.85;;;;;;;;;;5082835;28;20270;-70
2023/06/24 01:44:33;;;;;;;17.80;13.93;;;;;;;;;;5082155;28;20191;-69
2023/06/24 01:46:59;;;;;;;18.55;14.35;;;;;;;;;;5088006;28;20194;-69
2023/06/24 01:49:28;;;;;;;16.85;14.38;;;;;;;;;;5085776;28;20192;-69
2023/06/24 01:51:57;;;;;;;19.55;14.88;;;;;;;;;;5076567;28;20209;-69
2023/06/24 01:54:23;;;;;;;16.98;14.80;;;;;;;;;;5075987;28;20184;-69
2023/06/24 01:56:52;;;;;;;19.05;15.35;;;;;;;;;;5073523;28;20643;-69
2023/06/24 01:59:20;;;;;;;19.17;14.70;;;;;;;;;;5085099;28;20713;-69
2023/06/24 02:01:46;;;;;;;19.55;15.55;;;;;;;;;;5074517;28;20571;-69
2023/06/24 02:04:12;;;;;;;19.52;15.13;;;;;;;;;;5081327;28;20188;-70
2023/06/24 02:06:40;;;;;;;17.60;14.68;;;;;;;;;;5080542;28;20199;-70
2023/06/24 02:09:07;;;;;;;18.42;14.07;;;;;;;;;;5080745;28;20192;-69
2023/06/24 02:11:34;;;;;;;18.05;14.43;;;;;;;;;;5068457;28;20204;-70
2023/06/24 02:14:01;;;;;;;19.55;15.63;;;;;;;;;;5084030;28;20248;-69
2023/06/24 02:16:28;;;;;;;17.75;15.45;;;;;;;;;;5084092;28;20193;-69
2023/06/24 02:18:55;;;;;;;20.63;15.55;;;;;;;;;;5079243;28;20199;-69
2023/06/24 02:21:21;;;;;;;21.92;15.02;;;;;;;;;;5072056;28;20198;-69
2023/06/24 02:23:48;;;;;;;19.65;14.30;;;;;;;;;;5076956;28;20192;-69
2023/06/24 02:26:14;;;;;;;17.67;14.82;;;;;;;;;;5081148;28;20180;-70
2023/06/24 02:28:40;;;;;;;21.75;15.52;;;;;;;;;;5072304;28;20196;-70
2023/06/24 02:31:09;;;;;;;18.08;15.05;;;;;;;;;;5074241;28;20534;-70
2023/06/24 02:33:34;;;;;;;20.02;15.40;;;;;;;;;;5082594;28;20189;-69
2023/06/24 02:36:00;;;;;;;20.10;15.68;;;;;;;;;;5078670;28;20187;-69
2023/06/24 02:38:25;;;;;;;20.08;15.60;;;;;;;;;;5082351;28;20734;-70
2023/06/24 02:40:51;;;;;;;20.00;14.65;;;;;;;;;;5088445;28;20726;-69
2023/06/24 02:43:17;;;;;;;18.80;14.75;;;;;;;;;;5086308;28;20264;-69
2023/06/24 02:45:43;;;;;;;17.17;14.85;;;;;;;;;;5083588;28;20659;-69
2023/06/24 02:48:10;;;;;;;22.38;14.77;;;;;;;;;;5072369;28;20550;-69
2023/06/24 02:50:39;;;;;;;19.90;14.38;;;;;;;;;;5083063;28;20239;-69
2023/06/24 02:53:05;;;;;;;18.73;14.05;;;;;;;;;;5077575;28;20584;-69
2023/06/24 02:55:33;;;;;;;19.23;14.60;;;;;;;;;;5079424;28;20253;-69
2023/06/24 02:57:59;;;;;;;16.45;13.63;;;;;;;;;;5066722;28;20180;-69
2023/06/24 03:00:25;;;;;;;17.83;14.05;;;;;;;;;;5080480;28;20763;-69
2023/06/24 03:02:51;;;;;;;18.20;14.23;;;;;;;;;;5087654;28;20208;-69
2023/06/24 03:05:18;;;;;;;15.65;13.23;;;;;;;;;;5086946;28;20727;-69
2023/06/24 03:07:44;;;;;;;16.25;13.07;;;;;;;;;;5075983;28;20189;-69
2023/06/24 03:10:10;;;;;;;16.65;13.77;;;;;;;;;;5079695;28;20189;-69
2023/06/24 03:12:36;;;;;;;17.45;13.75;;;;;;;;;;5072361;28;20199;-69
2023/06/24 03:15:01;;;;;;;16.55;13.93;;;;;;;;;;5076374;28;20192;-70
2023/06/24 03:17:27;;;;;;;17.90;13.73;;;;;;;;;;5087195;28;20207;-69
2023/06/24 03:19:52;;;;;;;16.50;13.38;;;;;;;;;;5077970;28;20192;-69
2023/06/24 03:22:18;;;;;;;18.73;14.95;;;;;;;;;;5090943;28;20279;-70
2023/06/24 03:24:43;;;;;;;18.75;14.95;;;;;;;;;;5091802;28;20191;-69
2023/06/24 03:27:09;;;;;;;19.70;15.80;;;;;;;;;;5073521;28;20563;-69
2023/06/24 03:29:34;;;;;;;19.77;15.32;;;;;;;;;;5083766;28;20184;-70
2023/06/24 03:32:00;;;;;;;20.95;16.58;;;;;;;;;;5083258;28;20219;-70
2023/06/24 03:34:26;;;;;;;18.50;15.43;;;;;;;;;;5084769;28;20192;-69
2023/06/24 03:36:54;;;;;;;18.77;14.40;;;;;;;;;;5076839;28;20268;-69
2023/06/24 03:39:20;;;;;;;19.92;14.77;;;;;;;;;;5091027;28;20574;-69
2023/06/24 03:41:45;;;;;;;21.17;16.00;;;;;;;;;;5089654;28;20188;-69
2023/06/24 03:44:11;;;;;;;17.25;14.98;;;;;;;;;;5079049;28;20207;-69
2023/06/24 03:46:36;;;;;;;17.52;14.68;;;;;;;;;;5088106;28;20199;-69
2023/06/24 03:49:01;;;;;;;19.33;15.45;;;;;;;;;;5068932;28;20628;-69
2023/06/24 03:51:27;;;;;;;21.75;16.65;;;;;;;;;;5086798;28;20248;-70
2023/06/24 03:53:52;;;;;;;22.23;17.30;;;;;;;;;;5074131;28;20193;-70
2023/06/24 03:56:18;;;;;;;22.33;17.17;;;;;;;;;;5088621;28;20558;-70
2023/06/24 03:58:43;;;;;;;21.83;17.60;;;;;;;;;;5079706;28;20342;-69
2023/06/24 04:01:09;;;;;;;22.52;16.90;;;;;;;;;;5083441;28;20199;-69
2023/06/24 04:03:35;;;;;;;26.55;17.65;;;;;;;;;;5086185;28;20655;-70
2023/06/24 04:06:01;;;;;;;20.10;17.33;;;;;;;;;;5086236;28;20199;-70
2023/06/24 04:08:29;;;;;;;20.55;17.92;;;;;;;;;;5090441;28;20394;-69
2023/06/24 04:10:55;;;;;;;23.02;17.60;;;;;;;;;;5090282;28;20299;-69
2023/06/24 04:13:20;;;;;;;25.17;18.33;;;;;;;;;;5083794;28;20195;-71
2023/06/24 04:15:46;;;;;;;20.42;17.70;;;;;;;;;;5074827;28;20531;-69
2023/06/24 04:18:11;;;;;;;21.83;17.55;;;;;;;;;;5073953;28;20216;-69
2023/06/24 04:20:36;;;;;;;22.02;17.55;;;;;;;;;;5084233;28;20180;-69
2023/06/24 04:23:03;;;;;;;20.08;17.80;;;;;;;;;;5081772;28;20192;-69
2023/06/24 04:25:28;;;;;;;28.63;17.65;;;;;;;;;;5078174;28;20212;-69
2023/06/24 04:27:54;;;;;;;22.02;18.02;;;;;;;;;;5082071;28;20680;-70
2023/06/24 04:30:19;;;;;;;27.38;18.48;;;;;;;;;;5089557;28;20640;-71
2023/06/24 04:32:45;;;;;;;23.77;17.83;;;;;;;;;;5088237;28;20200;-70
2023/06/24 04:35:10;;;;;;;22.02;18.27;;;;;;;;;;5084818;28;20208;-70
2023/06/24 04:37:35;;;;;;;23.20;16.77;;;;;;;;;;5088527;28;20283;-70
2023/06/24 04:40:01;;;;;;;20.90;17.60;;;;;;;;;;5078426;28;20249;-70
2023/06/24 04:42:26;;;;;;;19.98;17.42;;;;;;;;;;5086034;28;20387;-70
2023/06/24 04:44:51;;;;;;;20.50;17.30;;;;;;;;;;5073695;28;20279;-71
2023/06/24 04:47:18;;;;;;;20.48;16.70;;;;;;;;;;5083883;28;20601;-70
2023/06/24 04:49:43;;;;;;;18.98;16.13;;;;;;;;;;5074550;28;20566;-71
2023/06/24 04:52:10;;;;;;;20.70;16.42;;;;;;;;;;5089076;28;20216;-71
2023/06/24 04:54:35;;;;;;;22.38;16.75;;;;;;;;;;5086345;28;20230;-70
2023/06/24 04:57:01;;;;;;;19.88;16.60;;;;;;;;;;5086788;28;20514;-71
2023/06/24 04:59:26;;;;;;;18.60;16.60;;;;;;;;;;5071737;28;20208;-70
2023/06/24 05:01:51;;;;;;;18.17;15.48;;;;;;;;;;5073525;28;20777;-70
2023/06/24 05:04:17;;;;;;;17.80;15.50;;;;;;;;;;5087764;28;20184;-70
2023/06/24 05:06:42;;;;;;;22.33;14.85;;;;;;;;;;5082289;28;20181;-70
2023/06/24 05:09:10;;;;;;;18.38;15.40;;;;;;;;;;5069075;28;20277;-70
2023/06/24 05:11:35;;;;;;;18.38;15.13;;;;;;;;;;5071729;28;20258;-70
2023/06/24 05:14:01;;;;;;;17.95;15.35;;;;;;;;;;5079435;28;20192;-70
2023/06/24 05:16:26;;;;;;;15.98;14.27;;;;;;;;;;5075814;28;20320;-70
2023/06/24 05:18:51;;;;;;;17.25;15.38;;;;;;;;;;5073298;28;20188;-70
2023/06/24 05:21:17;;;;;;;17.23;15.40;;;;;;;;;;5081072;28;20679;-70
2023/06/24 05:23:42;;;;;;;17.02;14.65;;;;;;;;;;5081954;28;20193;-72
2023/06/24 05:26:08;;;;;;;21.17;14.85;;;;;;;;;;5068547;28;20188;-71
2023/06/24 05:28:33;;;;;;;16.92;15.07;;;;;;;;;;5074887;28;20356;-71
2023/06/24 05:30:58;;;;;;;20.55;15.65;;;;;;;;;;5075975;28;20531;-71
2023/06/24 05:33:24;;;;;;;18.30;15.40;;;;;;;;;;5077300;28;20216;-71
2023/06/24 05:35:50;;;;;;;21.77;15.75;;;;;;;;;;5076083;28;20298;-71
2023/06/24 05:38:15;;;;;;;19.92;16.75;;;;;;;;;;5087376;28;20204;-71
2023/06/24 05:40:40;;;;;;;20.63;15.75;;;;;;;;;;5068275;28;20614;-71
2023/06/24 05:43:06;;;;;;;20.35;14.90;;;;;;;;;;5079756;28;20599;-71
2023/06/24 05:45:31;;;;;;;19.20;15.27;;;;;;;;;;5087481;28;20298;-71
2023/06/24 05:47:56;;;;;;;20.95;15.52;;;;;;;;;;5087461;28;20686;-71
2023/06/24 05:50:22;;;;;;;22.13;15.60;;;;;;;;;;5080861;28;20188;-70
2023/06/24 05:52:47;;;;;;;20.38;16.40;;;;;;;;;;5083434;28;20678;-71
2023/06/24 05:55:13;;;;;;;19.08;15.10;;;;;;;;;;5087201;28;20212;-70
2023/06/24 05:57:39;;;;;;;18.88;15.45;;;;;;;;;;5070110;28;20572;-72
2023/06/24 06:00:05;;;;;;;17.00;15.20;;;;;;;;;;5087428;28;20212;-71
2023/06/24 06:02:31;;;;;;;19.58;15.63;;;;;;;;;;5079089;28;20184;-72
2023/06/24 06:04:56;;;;;;;16.98;14.30;;;;;;;;;;5079625;28;20330;-72
2023/06/24 06:07:22;;;;;;;18.33;15.45;;;;;;;;;;5074398;28;20298;-71
2023/06/24 06:09:47;;;;;;;18.23;15.70;;;;;;;;;;5074227;28;20196;-70
2023/06/24 06:12:12;;;;;;;17.95;15.13;;;;;;;;;;5067255;28;20549;-70
2023/06/24 06:14:38;;;;;;;22.95;15.73;;;;;;;;;;5081354;28;20206;-71
2023/06/24 06:17:03;;;;;;;18.48;15.93;;;;;;;;;;5077790;28;20553;-70
2023/06/24 06:19:28;;;;;;;20.58;15.93;;;;;;;;;;5069053;28;20192;-71
2023/06/24 06:21:54;;;;;;;18.75;15.35;;;;;;;;;;5083315;28;20499;-71
2023/06/24 06:24:19;;;;;;;18.20;15.23;;;;;;;;;;5083689;28;20245;-71
2023/06/24 06:26:45;;;;;;;17.67;15.02;;;;;;;;;;5076819;28;20227;-71
2023/06/24 06:29:11;;;;;;;19.60;15.60;;;;;;;;;;5082336;28;20184;-71
2023/06/24 06:31:36;;;;;;;18.52;14.30;;;;;;;;;;5079387;28;20230;-71
2023/06/24 06:34:02;;;;;;;18.50;15.45;;;;;;;;;;5080448;28;20189;-71
2023/06/24 06:36:28;;;;;;;19.92;14.63;;;;;;;;;;5086736;28;20215;-71
2023/06/24 06:38:53;;;;;;;22.67;15.02;;;;;;;;;;5075361;28;20294;-71
2023/06/24 06:41:24;;;;;;;15.63;13.70;;;;;;;;;;5079314;28;20247;-71
2023/06/24 06:43:50;;;;;;;18.75;14.23;;;;;;;;;;5084356;28;20573;-73
2023/06/24 06:46:15;;;;;;;18.33;13.25;;;;;;;;;;5079673;28;20512;-72
2023/06/24 06:48:40;;;;;;;15.85;13.85;;;;;;;;;;5072227;28;20204;-72
2023/06/24 06:51:06;;;;;;;14.95;12.65;;;;;;;;;;5080818;28;20216;-72
2023/06/24 06:53:31;;;;;;;16.70;12.98;;;;;;;;;;5082182;28;20195;-71
2023/06/24 06:55:58;;;;;;;18.20;13.60;;;;;;;;;;5082082;28;20540;-72
2023/06/24 06:58:23;;;;;;;18.25;13.38;;;;;;;;;;5081863;28;20184;-70
2023/06/24 07:00:49;;;;;;;12.95;11.55;;;;;;;;;;5086751;28;20246;-73
2023/06/24 07:03:14;;;;;;;14.68;12.30;;;;;;;;;;5083390;28;20184;-71
2023/06/24 07:05:40;;;;;;;13.27;10.35;;;;;;;;;;5083362;28;20200;-71
2023/06/24 07:08:05;;;;;;;13.85;10.55;;;;;;;;;;5083276;28;20415;-71
2023/06/24 07:10:30;;;;;;;14.73;12.65;;;;;;;;;;5077532;28;20191;-71
2023/06/24 07:12:58;;;;;;;18.58;12.63;;;;;;;;;;5085510;28;20191;-71
2023/06/24 07:15:24;;;;;;;15.63;12.38;;;;;;;;;;5087388;28;20190;-71
2023/06/24 07:17:50;;;;;;;16.83;12.07;;;;;;;;;;5075137;28;20267;-71
2023/06/24 07:20:15;;;;;;;18.10;11.45;;;;;;;;;;5088223;28;20677;-71
2023/06/24 07:22:40;;;;;;;14.10;10.40;;;;;;;;;;5086418;28;20227;-71
2023/06/24 07:25:06;;;;;;;14.45;11.68;;;;;;;;;;5084662;28;20273;-71
2023/06/24 07:27:32;;;;;;;15.13;11.00;;;;;;;;;;5077568;28;20188;-72
2023/06/24 07:29:57;;;;;;;12.88;10.38;;;;;;;;;;5081948;28;20189;-71
2023/06/24 07:32:22;;;;;;;14.00;11.20;;;;;;;;;;5083995;28;20247;-71
2023/06/24 07:34:48;;;;;;;17.48;12.27;;;;;;;;;;5090809;28;20269;-71
2023/06/24 07:37:13;;;;;;;14.23;11.52;;;;;;;;;;5089571;28;20733;-71
2023/06/24 07:39:38;;;;;;;14.02;11.70;;;;;;;;;;5077986;28;20228;-71
2023/06/24 07:42:04;;;;;;;15.43;12.43;;;;;;;;;;5088211;28;20262;-71
2023/06/24 07:44:29;;;;;;;14.38;12.07;;;;;;;;;;5074308;28;20184;-71
2023/06/24 07:46:55;;;;;;;16.17;12.02;;;;;;;;;;5088760;28;22597;-71
2023/06/24 07:49:20;;;;;;;17.65;13.13;;;;;;;;;;5080386;28;20189;-71
2023/06/24 07:51:45;;;;;;;14.50;12.90;;;;;;;;;;5081027;28;20201;-72
2023/06/24 07:54:11;;;;;;;19.33;14.60;;;;;;;;;;5092809;28;20226;-71
2023/06/24 07:56:37;;;;;;;17.40;12.85;;;;;;;;;;5088865;28;20184;-72
2023/06/24 07:59:02;;;;;;;17.60;14.90;;;;;;;;;;5090961;28;20211;-71
2023/06/24 08:01:28;;;;;;;15.75;12.85;;;;;;;;;;5082591;28;20220;-72
2023/06/24 08:03:53;;;;;;;17.00;13.93;;;;;;;;;;5085203;28;20300;-71
2023/06/24 08:06:20;;;;;;;16.00;14.30;;;;;;;;;;5067192;28;20210;-72
2023/06/24 08:08:46;;;;;;;18.00;14.38;;;;;;;;;;5080350;28;20187;-72
2023/06/24 08:11:12;;;;;;;18.38;14.80;;;;;;;;;;5072760;28;20192;-72
2023/06/24 08:13:37;;;;;;;18.58;14.27;;;;;;;;;;5072216;28;20189;-71
2023/06/24 08:16:02;;;;;;;19.25;14.80;;;;;;;;;;5076021;28;20191;-71
2023/06/24 08:18:28;;;;;;;16.17;14.27;;;;;;;;;;5081580;28;20196;-72
2023/06/24 08:20:53;;;;;;;20.45;15.02;;;;;;;;;;5082497;28;20183;-71
2023/06/24 08:23:19;;;;;;;17.05;15.23;;;;;;;;;;5083095;28;20564;-71
2023/06/24 08:25:44;;;;;;;18.67;14.13;;;;;;;;;;5087126;28;20476;-71
2023/06/24 08:28:10;;;;;;;18.67;15.02;;;;;;;;;;5086548;28;20188;-71
2023/06/24 08:30:36;;;;;;;18.27;14.10;;;;;;;;;;5070694;28;20188;-72
2023/06/24 08:33:01;;;;;;;22.52;13.95;;;;;;;;;;5081848;28;20180;-71
2023/06/24 08:35:26;;;;;;;18.38;13.80;;;;;;;;;;5079789;28;20250;-71
2023/06/24 08:37:52;;;;;;;15.60;13.10;;;;;;;;;;5075108;28;20501;-71
2023/06/24 08:40:17;;;;;;;19.50;13.90;;;;;;;;;;5069613;28;20228;-71
2023/06/24 08:42:43;;;;;;;16.63;13.20;;;;;;;;;;5082090;28;20682;-72
2023/06/24 08:45:09;;;;;;;22.33;13.80;;;;;;;;;;5078716;28;20505;-72
2023/06/24 08:47:35;;;;;;;17.60;14.85;;;;;;;;;;5084407;28;20242;-70
2023/06/24 08:50:07;;;;;;;20.23;14.63;;;;;;;;;;5079461;28;20180;-71
2023/06/24 08:52:36;;;;;;;17.50;13.98;;;;;;;;;;5075544;28;20231;-71
2023/06/24 08:55:02;;;;;;;16.70;13.80;;;;;;;;;;5081135;28;20176;-71
2023/06/24 08:57:28;;;;;;;15.50;12.68;;;;;;;;;;5083539;28;20197;-70
2023/06/24 08:59:53;;;;;;;15.75;12.55;;;;;;;;;;5081138;28;20197;-71
2023/06/24 09:02:19;;;;;;;15.38;11.10;;;;;;;;;;5085571;28;20188;-71
2023/06/24 09:04:45;;;;;;;17.15;11.68;;;;;;;;;;5074672;28;20226;-70
2023/06/24 09:07:11;;;;;;;13.45;11.23;;;;;;;;;;4380179;28;10000810;-72
2023/06/24 09:09:44;;;;;;;16.35;11.48;;;;;;;;;;5071640;28;20207;-70
2023/06/24 09:12:12;;;;;;;13.82;12.32;;;;;;;;;;5074284;28;20281;-71
2023/06/24 09:14:38;;;;;;;15.13;11.40;;;;;;;;;;5085922;28;20516;-71
2023/06/24 09:17:06;;;;;;;14.95;12.90;;;;;;;;;;5078798;28;20271;-71
2023/06/24 09:19:36;;;;;;;15.93;12.15;;;;;;;;;;5070896;28;20192;-71
2023/06/24 09:22:03;;;;;;;13.93;11.70;;;;;;;;;;5076213;28;20223;-71
2023/06/24 09:24:36;;;;;;;15.50;11.38;;;;;;;;;;5075378;28;20192;-71
2023/06/24 09:27:03;;;;;;;16.33;10.77;;;;;;;;;;5084854;28;20199;-71
2023/06/24 09:29:31;;;;;;;16.45;11.77;;;;;;;;;;5076701;28;20626;-71
2023/06/24 09:31:59;;;;;;;13.32;9.70;;;;;;;;;;5084383;28;20719;-70
2023/06/24 09:34:24;;;;;;;10.77;8.38;;;;;;;;;;5079513;28;20185;-71
2023/06/24 09:36:54;;;;;;;10.23;8.25;;;;;;;;;;5082016;28;20218;-70
2023/06/24 09:39:28;;;;;;;12.00;9.38;;;;;;;;;;5075124;28;20268;-72
2023/06/24 09:41:56;;;;;;;10.48;7.85;;;;;;;;;;5082624;28;20188;-72
2023/06/24 09:44:22;;;;;;;11.70;9.23;;;;;;;;;;5080481;28;20208;-72
2023/06/24 09:46:47;;;;;;;11.20;7.90;;;;;;;;;;5058940;28;20230;-72
2023/06/24 09:49:13;;;;;;;9.80;8.05;;;;;;;;;;5069819;28;20218;-71
2023/06/24 09:51:44;;;;;;;10.63;6.90;;;;;;;;;;5078673;28;20235;-71
2023/06/24 09:54:11;;;;;;;8.48;6.82;;;;;;;;;;5077908;28;20196;-71
2023/06/24 09:56:42;;;;;;;10.25;6.85;;;;;;;;;;5075918;28;20196;-71
2023/06/24 09:59:08;;;;;;;6.85;5.45;;;;;;;;;;5077621;28;20221;-71
2023/06/24 10:01:38;;;;;;;7.70;5.72;;;;;;;;;;5078456;28;20287;-72
2023/06/24 10:04:06;;;;;;;9.57;6.20;;;;;;;;;;5076516;28;20734;-71
2023/06/24 10:06:32;;;;;;;6.60;5.90;;;;;;;;;;5076559;28;20191;-71
2023/06/24 10:08:58;;;;;;;10.18;6.45;;;;;;;;;;5076192;28;20192;-73
2023/06/24 10:11:24;;;;;;;5.90;4.88;;;;;;;;;;5078944;28;20564;-71
2023/06/24 10:13:50;;;;;;;5.97;5.05;;;;;;;;;;5077821;28;20271;-73
2023/06/24 10:16:16;;;;;;;7.47;5.03;;;;;;;;;;5079679;28;20208;-72
2023/06/24 10:18:44;;;;;;;7.35;4.25;;;;;;;;;;5073049;28;20637;-72
2023/06/24 10:21:10;;;;;;;6.22;4.47;;;;;;;;;;5083578;28;20218;-72
2023/06/24 10:23:43;;;;;;;5.75;4.60;;;;;;;;;;5080770;28;20243;-71
2023/06/24 10:26:10;;;;;;;5.22;4.40;;;;;;;;;;5071473;28;20272;-72
2023/06/24 10:29:04;;;;;;;4.93;4.38;;;;;;;;;;5072463;28;20672;-72
2023/06/24 10:31:39;;;;;;;6.18;4.57;;;;;;;;;;5076243;28;20208;-71
2023/06/24 10:34:33;;;;;;;5.75;4.10;;;;;;;;;;5074676;28;20200;-72
2023/06/24 10:37:19;;;;;;;8.18;4.80;;;;;;;;;;5070898;28;20523;-72
2023/06/24 10:39:59;;;;;;;4.63;4.18;;;;;;;;;;5077997;28;20228;-72
2023/06/24 10:42:36;;;;;;;7.88;4.25;;;;;;;;;;5072958;28;20211;-72
2023/06/24 10:45:13;;;;;;;5.03;3.70;;;;;;;;;;5078957;28;20196;-73
2023/06/24 10:47:45;;;;;;;5.55;4.15;;;;;;;;;;5080002;28;20272;-73
2023/06/24 10:50:16;;;;;;;5.10;3.60;;;;;;;;;;5070415;28;20196;-73
2023/06/24 10:52:47;;;;;;;4.93;4.05;;;;;;;;;;5077887;28;20211;-70
2023/06/24 10:55:16;;;;;;;4.15;3.28;;;;;;;;;;5070705;28;20228;-73
2023/06/24 10:57:42;;;;;;;6.13;3.53;;;;;;;;;;5063107;28;20192;-73
2023/06/24 11:00:08;;;;;;;7.07;3.53;;;;;;;;;;5073035;28;20192;-73
2023/06/24 11:02:33;;;;;;;3.92;3.53;;;;;;;;;;5082094;28;20215;-73
2023/06/24 11:05:00;;;;;;;3.92;3.17;;;;;;;;;;5078657;28;20188;-71
2023/06/24 11:07:30;;;;;;;3.65;3.20;;;;;;;;;;5079186;28;20729;-74
2023/06/24 11:09:57;;;;;;;3.30;3.00;;;;;;;;;;5080918;28;20297;-72
2023/06/24 11:12:27;;;;;;;5.03;3.13;;;;;;;;;;5074138;28;20203;-72
2023/06/24 11:15:00;;;;;;;3.45;3.00;;;;;;;;;;5072595;28;20679;-72
2023/06/24 11:17:26;;;;;;;4.13;2.90;;;;;;;;;;5073681;28;20220;-71
2023/06/24 11:19:56;;;;;;;3.40;2.80;;;;;;;;;;5075439;28;20261;-72
2023/06/24 11:22:22;;;;;;;3.75;3.20;;;;;;;;;;5081888;28;20186;-73
2023/06/24 11:24:48;;;;;;;3.95;3.22;;;;;;;;;;5056252;28;20196;-73
2023/06/24 11:27:14;;;;;;;4.72;2.97;;;;;;;;;;5084432;28;20241;-72
2023/06/24 11:29:39;;;;;;;5.90;3.13;;;;;;;;;;5078010;28;20197;-72
2023/06/24 11:32:08;;;;;;;3.63;3.20;;;;;;;;;;5068252;28;20687;-72
2023/06/24 11:34:34;;;;;;;4.70;3.47;;;;;;;;;;5074549;28;20188;-73
2023/06/24 11:37:10;;;;;;;5.22;3.40;;;;;;;;;;5075407;28;20245;-72
2023/06/24 11:39:35;;;;;;;5.70;3.60;;;;;;;;;;5078633;28;20220;-71
2023/06/24 11:42:00;;;;;;;5.93;3.70;;;;;;;;;;5081286;28;20180;-71
2023/06/24 11:44:26;;;;;;;3.95;3.55;;;;;;;;;;5079232;28;20609;-72
2023/06/24 11:46:52;;;;;;;4.88;3.42;;;;;;;;;;5071153;28;20262;-72
2023/06/24 11:49:18;;;;;;;4.03;3.25;;;;;;;;;;5085891;28;20270;-72
2023/06/24 11:51:50;;;;;;;4.47;3.50;;;;;;;;;;5074572;28;20215;-71
2023/06/24 11:54:17;;;;;;;6.00;3.60;;;;;;;;;;5074024;28;20498;-72
2023/06/24 11:56:45;;;;;;;4.30;3.75;;;;;;;;;;5074321;28;20324;-71
2023/06/24 11:59:17;;;;;;;4.53;3.50;;;;;;;;;;5081450;28;20184;-71
2023/06/24 12:01:43;;;;;;;6.32;3.10;;;;;;;;;;5071235;28;20196;-72
2023/06/24 12:04:13;;;;;;;5.32;3.20;;;;;;;;;;5082889;28;20209;-73
2023/06/24 12:06:40;;;;;;;5.22;3.97;;;;;;;;;;5072460;28;20200;-73
2023/06/24 12:09:06;;;;;;;8.00;4.05;;;;;;;;;;5074418;28;20185;-72
2023/06/24 12:11:31;;;;;;;4.70;3.65;;;;;;;;;;5082398;28;20438;-73
2023/06/24 12:13:57;;;;;;;5.03;4.28;;;;;;;;;;5085279;28;20199;-71
2023/06/24 12:16:23;;;;;;;6.25;4.13;;;;;;;;;;5077671;28;20185;-71
2023/06/24 12:18:48;;;;;;;4.90;4.18;;;;;;;;;;5054614;28;20793;-71
2023/06/24 12:21:13;;;;;;;5.03;4.07;;;;;;;;;;5069893;28;20204;-71
2023/06/24 12:23:39;;;;;;;5.45;3.83;;;;;;;;;;5084258;28;20195;-70
2023/06/24 12:26:04;;;;;;;4.75;3.92;;;;;;;;;;5081022;28;20188;-70
2023/06/24 12:28:29;;;;;;;4.70;4.03;;;;;;;;;;5078194;28;20219;-71
2023/06/24 12:30:55;;;;;;;6.38;4.35;;;;;;;;;;5076738;28;20243;-71
2023/06/24 12:33:22;;;;;;;8.50;4.20;;;;;;;;;;5081427;28;20265;-70
2023/06/24 12:35:48;;;;;;;5.85;3.97;;;;;;;;;;5089864;28;20286;-71
2023/06/24 12:38:13;;;;;;;5.00;4.07;;;;;;;;;;5077717;28;20263;-71
2023/06/24 12:40:39;;;;;;;6.15;4.03;;;;;;;;;;5080580;28;20315;-70
2023/06/24 12:43:04;;;;;;;7.25;4.82;;;;;;;;;;5072070;28;20679;-70
2023/06/24 12:45:31;;;;;;;5.88;4.18;;;;;;;;;;5072674;28;20208;-69
2023/06/24 12:47:56;;;;;;;6.00;4.13;;;;;;;;;;5076280;28;20196;-72
2023/06/24 12:50:22;;;;;;;4.60;4.10;;;;;;;;;;5080672;28;20656;-70
2023/06/24 12:52:47;;;;;;;4.93;4.22;;;;;;;;;;5086526;28;20214;-71
2023/06/24 12:55:12;;;;;;;4.68;3.90;;;;;;;;;;5070260;28;20226;-71
2023/06/24 12:57:38;;;;;;;5.53;4.18;;;;;;;;;;5080292;28;20207;-70
2023/06/24 13:00:07;;;;;;;4.10;3.67;;;;;;;;;;5075504;28;20703;-70
2023/06/24 13:02:32;;;;;;;6.45;4.15;;;;;;;;;;5081269;28;20287;-71
2023/06/24 13:04:58;;;;;;;4.82;4.03;;;;;;;;;;5075532;28;20275;-70
2023/06/24 13:07:23;;;;;;;4.20;3.88;;;;;;;;;;5080696;28;20189;-70
2023/06/24 13:09:49;;;;;;;7.07;3.92;;;;;;;;;;5074352;28;20270;-70
2023/06/24 13:12:14;;;;;;;4.15;3.75;;;;;;;;;;5080476;28;20745;-72
2023/06/24 13:14:40;;;;;;;4.72;4.15;;;;;;;;;;5077222;28;20263;-71
2023/06/24 13:17:05;;;;;;;5.03;3.92;;;;;;;;;;5080163;28;20188;-71
2023/06/24 13:19:32;;;;;;;4.55;3.75;;;;;;;;;;5080635;28;20199;-71
2023/06/24 13:21:58;;;;;;;5.60;4.10;;;;;;;;;;5073176;28;20766;-71
2023/06/24 13:24:23;;;;;;;7.22;4.32;;;;;;;;;;5079863;28;20201;-71
2023/06/24 13:26:48;;;;;;;15.35;4.82;;;;;;;;;;5076336;28;20188;-71
2023/06/24 13:29:14;;;;;;;10.10;5.70;;;;;;;;;;5079782;28;20223;-71
2023/06/24 13:31:40;;;;;;;14.00;4.78;;;;;;;;;;5074866;28;20247;-70
2023/06/24 13:34:06;;;;;;;7.50;4.32;;;;;;;;;;5074063;28;20185;-70
2023/06/24 13:36:36;;;;;;;5.38;4.00;;;;;;;;;;5080255;28;20196;-71
2023/06/24 13:39:04;;;;;;;14.27;4.60;;;;;;;;;;5067728;28;20527;-71
2023/06/24 13:41:31;;;;;;;8.57;4.00;;;;;;;;;;5076476;28;20220;-72
2023/06/24 13:43:58;;;;;;;7.82;4.13;;;;;;;;;;5080897;28;20230;-70
2023/06/24 13:46:23;;;;;;;4.78;4.25;;;;;;;;;;5078445;28;20212;-71
2023/06/24 13:48:49;;;;;;;5.97;4.20;;;;;;;;;;5073802;28;20194;-71
2023/06/24 13:51:16;;;;;;;6.65;3.85;;;;;;;;;;5071658;28;20200;-71
2023/06/24 13:53:41;;;;;;;4.30;3.85;;;;;;;;;;5081034;28;20191;-70
2023/06/24 13:56:08;;;;;;;5.13;4.15;;;;;;;;;;5076041;28;20350;-70
2023/06/24 13:58:33;;;;;;;5.03;4.13;;;;;;;;;;5078615;28;20192;-70
2023/06/24 14:00:58;;;;;;;4.85;3.63;;;;;;;;;;5071428;28;20231;-70
2023/06/24 14:03:24;;;;;;;4.53;4.13;;;;;;;;;;5077667;28;20180;-71
2023/06/24 14:05:49;;;;;;;4.75;4.25;;;;;;;;;;5081014;28;20191;-71
2023/06/24 14:08:14;;;;;;;4.90;4.40;;;;;;;;;;5069407;28;20184;-71
2023/06/24 14:10:40;;;;;;;4.35;3.55;;;;;;;;;;5074946;28;20278;-70
2023/06/24 14:13:05;;;;;;;4.93;3.50;;;;;;;;;;5087264;28;20191;-71
2023/06/24 14:15:31;;;;;;;4.30;3.90;;;;;;;;;;5081080;28;20222;-72
2023/06/24 14:17:56;;;;;;;5.28;4.07;;;;;;;;;;5071640;28;20192;-72
2023/06/24 14:20:24;;;;;;;4.65;4.13;;;;;;;;;;5075994;28;20184;-71
2023/06/24 14:22:50;;;;;;;4.18;3.80;;;;;;;;;;5070954;28;20620;-69
2023/06/24 14:25:15;;;;;;;4.28;3.88;;;;;;;;;;5078341;28;20278;-70